Time;durP1;ratioP1;P1;durP2;ratioP2;P2;SDS_P1;SDS_P2;PMS_P1;PMS_P2;Temp;Humidity;BMP_temperature;BMP_pressure;BME280_temperature;BME280_humidity;BME280_pressure;Samples;Min_cycle;Max_cycle;Signal;HPM_P1;HPM_P2
2024/03/02 07:28:46;;;;;;;15.95;13.85;;;8.10;99.90;;;;;;4743750;23;20596;-92
2024/03/02 07:31:17;;;;;;;14.55;12.32;;;7.90;99.90;;;;;;4899804;29;20231;-91
2024/03/02 07:43:28;;;;;;;16.50;14.13;;;7.50;99.90;;;;;;4788314;29;20271;-91
2024/03/02 08:06:27;;;;;;;16.38;13.80;;;9.20;96.80;;;;;;6043448;23;20185;-88
2024/03/02 08:23:34;;;;;;;15.90;12.95;;;9.60;94.90;;;;;;4877550;29;20208;-91
2024/03/02 08:26:13;;;;;;;14.43;12.05;;;9.60;95.50;;;;;;4853774;29;20200;-90
2024/03/02 08:28:57;;;;;;;15.23;11.70;;;9.50;95.70;;;;;;4870783;29;20733;-91
2024/03/02 08:51:54;;;;;;;42.05;33.40;;;9.40;96.50;;;;;;4805554;29;20706;-89
2024/03/02 08:54:21;;;;;;;13.57;11.27;;;9.80;96.30;;;;;;4789478;29;20214;-87
2024/03/02 09:09:42;;;;;;;11.10;8.93;;;11.10;90.50;;;;;;4914690;29;20713;-91
2024/03/02 09:12:10;;;;;;;12.27;9.60;;;11.40;89.00;;;;;;4900442;29;20693;-93
2024/03/02 09:14:38;;;;;;;13.23;11.25;;;11.80;86.10;;;;;;4909226;29;20203;-91
2024/03/02 09:17:05;;;;;;;11.15;9.55;;;12.30;84.30;;;;;;4915454;29;20202;-91
2024/03/02 09:19:32;;;;;;;10.60;9.50;;;13.20;77.80;;;;;;4914307;29;20213;-90
2024/03/02 09:21:59;;;;;;;10.63;9.55;;;13.80;66.80;;;;;;4911763;29;20254;-89
2024/03/02 09:24:25;;;;;;;11.05;9.75;;;13.90;63.10;;;;;;4910671;29;20202;-89
2024/03/02 09:26:54;;;;;;;9.88;8.75;;;14.60;55.50;;;;;;4894979;29;20214;-92
2024/03/02 09:29:21;;;;;;;8.68;7.28;;;15.20;40.00;;;;;;4891587;29;20262;-88
2024/03/02 09:31:49;;;;;;;7.88;6.93;;;16.40;33.70;;;;;;4915431;29;20199;-89
2024/03/02 09:34:16;;;;;;;8.65;7.35;;;17.00;29.60;;;;;;4914946;29;20290;-87
2024/03/02 09:36:43;;;;;;;8.20;7.18;;;17.20;28.20;;;;;;4910617;29;20571;-81
2024/03/02 09:39:10;;;;;;;9.18;7.28;;;17.80;23.50;;;;;;4899490;29;20206;-87
2024/03/02 09:41:37;;;;;;;9.73;8.77;;;16.80;23.50;;;;;;4914428;29;20210;-88
2024/03/02 09:44:06;;;;;;;12.73;11.43;;;16.60;25.00;;;;;;4910662;29;20203;-88
2024/03/02 09:46:33;;;;;;;7.07;6.38;;;16.40;25.40;;;;;;4909171;29;20210;-88
2024/03/02 09:49:00;;;;;;;6.93;6.22;;;16.70;26.70;;;;;;4927091;29;20270;-89
2024/03/02 09:51:27;;;;;;;6.72;6.00;;;17.60;22.20;;;;;;4926137;29;20208;-89
2024/03/02 09:53:56;;;;;;;6.82;5.82;;;17.70;20.30;;;;;;4921268;29;20202;-86
2024/03/02 09:56:23;;;;;;;6.43;5.82;;;18.20;19.80;;;;;;4917814;29;20214;-84
2024/03/02 09:58:50;;;;;;;6.40;5.70;;;18.10;19.50;;;;;;4908315;29;20273;-86
2024/03/02 10:01:18;;;;;;;6.72;6.00;;;18.30;19.20;;;;;;4916166;29;20206;-87
2024/03/02 10:03:49;;;;;;;6.53;5.93;;;17.60;20.70;;;;;;4917997;29;20203;-87
2024/03/02 10:06:20;;;;;;;6.72;6.03;;;17.50;21.60;;;;;;4904552;29;20199;-92
2024/03/02 10:08:48;;;;;;;7.00;6.30;;;16.90;23.50;;;;;;4923578;29;20206;-92
2024/03/02 10:11:27;;;;;;;7.28;6.35;;;17.20;24.50;;;;;;4929745;29;20199;-89
2024/03/02 10:14:07;;;;;;;7.22;6.30;;;18.20;21.00;;;;;;4914250;29;20202;-91
2024/03/02 10:16:36;;;;;;;5.85;5.35;;;18.00;18.00;;;;;;4918462;29;20266;-89
2024/03/02 10:19:17;;;;;;;6.43;5.72;;;17.70;20.00;;;;;;4911833;29;20271;-88
2024/03/02 10:21:44;;;;;;;5.70;5.10;;;17.90;20.30;;;;;;4910628;29;20230;-85
2024/03/02 10:24:12;;;;;;;5.78;5.28;;;18.10;19.60;;;;;;4922710;29;20672;-87
2024/03/02 10:26:39;;;;;;;8.15;7.07;;;18.30;19.20;;;;;;4920240;29;20214;-86
2024/03/02 10:29:18;;;;;;;8.13;6.78;;;18.60;18.10;;;;;;4921033;29;20325;-85
2024/03/02 10:35:36;;;;;;;7.43;6.47;;;18.50;17.70;;;;;;4902780;29;20171;-85
2024/03/02 10:38:05;;;;;;;6.75;5.60;;;18.50;18.60;;;;;;4940398;29;20206;-86
2024/03/02 10:40:32;;;;;;;7.35;6.57;;;18.60;18.20;;;;;;4932703;29;20211;-89
2024/03/02 10:43:02;;;;;;;6.95;6.25;;;17.90;18.90;;;;;;4926904;29;20207;-91
2024/03/02 10:45:41;;;;;;;7.65;6.55;;;17.50;22.20;;;;;;4926604;29;20175;-89
2024/03/02 10:49:03;;;;;;;7.60;6.72;;;17.80;20.00;;;;;;4931328;29;20171;-87
2024/03/02 10:51:33;;;;;;;10.15;8.75;;;18.50;19.30;;;;;;4905535;29;20209;-88
2024/03/02 10:54:02;;;;;;;11.75;10.18;;;18.20;19.20;;;;;;4916802;29;20290;-88
2024/03/02 10:56:30;;;;;;;10.57;9.48;;;18.00;20.40;;;;;;4916556;29;20292;-87
2024/03/02 10:59:04;;;;;;;10.95;8.90;;;17.70;20.30;;;;;;4919695;29;20213;-89
2024/03/02 11:01:33;;;;;;;14.68;11.07;;;17.50;21.70;;;;;;4922125;29;20231;-87
2024/03/02 11:04:03;;;;;;;13.60;11.60;;;17.40;23.10;;;;;;4918879;29;20202;-86
2024/03/02 11:06:35;;;;;;;13.45;11.10;;;17.50;22.20;;;;;;4925595;29;20195;-87
2024/03/02 11:12:27;;;;;;;13.13;10.93;;;17.50;21.40;;;;;;4929413;29;20549;-89
2024/03/02 11:14:56;;;;;;;11.70;10.35;;;17.20;23.30;;;;;;4928400;29;20194;-91
2024/03/02 11:17:24;;;;;;;13.68;11.25;;;17.20;22.20;;;;;;4925556;29;20221;-90
2024/03/02 11:19:51;;;;;;;13.77;10.52;;;17.30;21.30;;;;;;4897185;29;20602;-87
2024/03/02 11:22:20;;;;;;;12.30;10.43;;;16.70;24.60;;;;;;4935911;28;20316;-90
2024/03/02 11:24:51;;;;;;;15.63;10.23;;;16.20;24.00;;;;;;4926093;29;20206;-91
2024/03/02 11:27:59;;;;;;;12.63;10.15;;;15.30;26.60;;;;;;4920613;29;20211;-91
2024/03/02 11:31:10;;;;;;;11.95;9.60;;;14.90;27.80;;;;;;4928058;29;20297;-91
2024/03/02 11:48:56;;;;;;;12.27;8.73;;;15.20;28.00;;;;;;4887234;29;20252;-90
2024/03/02 11:51:23;;;;;;;11.68;7.93;;;15.00;27.90;;;;;;4870347;29;20196;-90
2024/03/02 11:54:07;;;;;;;10.48;7.95;;;14.90;27.80;;;;;;4880953;29;20211;-91
2024/03/02 12:10:19;;;;;;;13.55;9.82;;;14.40;30.50;;;;;;4919145;29;20778;-91
2024/03/02 12:16:09;;;;;;;13.25;10.15;;;14.20;30.90;;;;;;4918854;29;20162;-91
2024/03/02 12:18:36;;;;;;;12.10;9.32;;;14.40;32.30;;;;;;4899756;29;20654;-90
2024/03/02 12:21:06;;;;;;;13.40;10.20;;;14.30;32.10;;;;;;4904457;29;20214;-91
2024/03/02 12:27:12;;;;;;;10.70;8.27;;;14.60;31.40;;;;;;5378484;23;20235;-93
2024/03/02 12:29:41;;;;;;;12.52;9.13;;;14.60;31.80;;;;;;4888686;29;20561;-91
2024/03/02 12:32:08;;;;;;;15.77;10.48;;;14.60;31.90;;;;;;4884078;29;20203;-90
2024/03/02 12:41:16;;;;;;;12.20;9.82;;;14.20;35.70;;;;;;4872801;29;20652;-93
2024/03/02 13:37:40;;;;;;;12.95;9.48;;;13.90;42.50;;;;;;4902894;29;20183;-92
2024/03/02 13:40:12;;;;;;;14.57;11.90;;;13.90;43.70;;;;;;4887356;29;20226;-87
2024/03/02 13:53:52;;;;;;;15.90;12.25;;;13.60;50.10;;;;;;4873567;29;20223;-94
2024/03/02 14:06:37;;;;;;;12.85;9.52;;;13.40;49.90;;;;;;4883739;29;20188;-93
2024/03/02 14:16:41;;;;;;;9.23;7.00;;;13.70;36.60;;;;;;4885123;29;20196;-91
2024/03/02 15:44:56;;;;;;;15.00;9.77;;;12.90;44.40;;;;;;4900679;29;20573;-90
2024/03/02 17:46:37;;;;;;;23.85;16.10;;;10.00;89.40;;;;;;4880056;29;20193;-86
2024/03/02 17:52:58;;;;;;;24.70;16.20;;;9.80;91.40;;;;;;4879641;29;20207;-86
2024/03/02 17:55:27;;;;;;;22.83;15.57;;;9.70;92.20;;;;;;4880154;29;20219;-86
2024/03/02 18:09:49;;;;;;;25.92;16.75;;;9.60;93.00;;;;;;4880298;29;20215;-87
2024/03/02 18:15:54;;;;;;;29.08;17.55;;;9.50;93.60;;;;;;4883213;29;20207;-87
2024/03/02 18:22:11;;;;;;;25.25;17.58;;;9.40;94.30;;;;;;4886292;29;20228;-87
2024/03/02 18:28:00;;;;;;;27.40;17.50;;;9.30;94.90;;;;;;4883797;29;20255;-87
2024/03/02 18:30:27;;;;;;;25.08;17.30;;;9.20;94.90;;;;;;4883747;29;20625;-85
2024/03/02 18:32:56;;;;;;;31.83;19.58;;;9.10;95.00;;;;;;4880988;29;20218;-87
2024/03/02 18:35:23;;;;;;;30.25;18.45;;;9.00;95.60;;;;;;4880498;29;20200;-86
2024/03/02 18:37:50;;;;;;;27.75;18.85;;;9.00;95.90;;;;;;4882336;29;20291;-91
2024/03/02 18:40:17;;;;;;;29.35;19.23;;;8.90;95.90;;;;;;4881074;29;20207;-86
2024/03/02 18:42:43;;;;;;;29.65;19.25;;;8.90;96.00;;;;;;4880784;29;20648;-87
2024/03/02 18:45:10;;;;;;;28.85;18.80;;;8.80;96.20;;;;;;4878692;29;20200;-86
2024/03/02 18:47:38;;;;;;;27.38;18.58;;;8.80;96.40;;;;;;4865807;29;20218;-87
2024/03/02 18:50:09;;;;;;;31.42;19.30;;;8.70;96.70;;;;;;4881343;29;20236;-87
2024/03/02 18:52:37;;;;;;;27.02;19.15;;;8.70;96.80;;;;;;4865591;29;20660;-87
2024/03/02 18:55:04;;;;;;;29.83;20.17;;;8.60;97.00;;;;;;4888990;29;20294;-91
2024/03/02 18:57:31;;;;;;;34.38;20.65;;;8.50;97.20;;;;;;4881879;29;20284;-87
2024/03/02 18:59:58;;;;;;;34.55;20.88;;;8.50;97.50;;;;;;4875311;29;20655;-86
2024/03/02 19:02:25;;;;;;;32.40;19.70;;;8.40;97.90;;;;;;4882776;29;20222;-87
2024/03/02 19:04:52;;;;;;;34.20;20.58;;;8.30;98.00;;;;;;4881814;29;20565;-87
2024/03/02 19:07:20;;;;;;;32.88;20.52;;;8.30;98.40;;;;;;4879691;29;20200;-87
2024/03/02 19:09:47;;;;;;;36.53;21.08;;;8.30;98.70;;;;;;4875238;29;20222;-86
2024/03/02 19:12:14;;;;;;;31.17;21.35;;;8.30;98.90;;;;;;4887906;29;20232;-89
2024/03/02 19:14:41;;;;;;;32.70;21.33;;;8.30;98.60;;;;;;4897239;29;20211;-88
2024/03/02 19:17:08;;;;;;;39.70;23.23;;;8.20;98.70;;;;;;4894144;29;20208;-86
2024/03/02 19:19:35;;;;;;;36.38;22.48;;;8.20;98.90;;;;;;4893206;29;20199;-86
2024/03/02 19:22:04;;;;;;;34.78;22.13;;;8.10;99.00;;;;;;4897791;29;20267;-87
2024/03/02 19:24:36;;;;;;;35.42;22.15;;;8.10;99.40;;;;;;4878064;29;20278;-85
2024/03/02 19:27:03;;;;;;;36.60;22.67;;;8.10;99.40;;;;;;4894232;29;20210;-86
2024/03/02 19:29:30;;;;;;;37.00;23.20;;;8.10;99.30;;;;;;4894089;29;20199;-88
2024/03/02 19:31:58;;;;;;;33.58;23.52;;;8.10;99.70;;;;;;4890609;29;20235;-86
2024/03/02 19:34:25;;;;;;;43.25;24.75;;;8.00;99.90;;;;;;4890821;29;20200;-86
2024/03/02 19:36:52;;;;;;;36.08;23.48;;;8.00;99.90;;;;;;4894188;29;20853;-86
2024/03/02 19:39:26;;;;;;;40.50;25.20;;;8.10;99.90;;;;;;4893018;29;20559;-86
2024/03/02 19:41:54;;;;;;;37.60;24.30;;;8.10;99.90;;;;;;4894587;29;20270;-86
2024/03/02 19:44:23;;;;;;;46.65;26.77;;;8.10;99.90;;;;;;4878278;29;20203;-86
2024/03/02 19:46:50;;;;;;;41.78;26.90;;;8.00;99.90;;;;;;4899667;29;20327;-86
2024/03/02 19:49:17;;;;;;;48.60;26.63;;;8.10;99.90;;;;;;4894540;29;20697;-86
2024/03/02 19:51:45;;;;;;;41.70;24.98;;;8.10;99.90;;;;;;4895648;29;20317;-86
2024/03/02 19:54:12;;;;;;;41.85;25.52;;;8.00;99.90;;;;;;4896571;29;20199;-86
2024/03/02 19:56:39;;;;;;;37.90;25.38;;;8.00;99.90;;;;;;4892610;29;20230;-87
2024/03/02 19:59:10;;;;;;;42.78;26.90;;;8.00;99.90;;;;;;4898641;29;20210;-86
2024/03/02 20:01:37;;;;;;;46.10;27.40;;;7.90;99.90;;;;;;4892755;29;20204;-89
2024/03/02 20:04:09;;;;;;;42.97;27.17;;;7.90;99.90;;;;;;4877429;29;20231;-87
2024/03/02 20:06:36;;;;;;;42.90;27.40;;;7.80;99.90;;;;;;4881641;29;20203;-86
2024/03/02 20:09:04;;;;;;;41.17;26.85;;;7.70;99.90;;;;;;4896068;29;20249;-86
2024/03/02 20:11:33;;;;;;;46.45;27.73;;;7.70;99.90;;;;;;4893399;29;20283;-88
2024/03/02 20:14:00;;;;;;;44.03;27.73;;;7.70;99.90;;;;;;4892395;29;20383;-86
2024/03/02 20:16:28;;;;;;;41.97;27.25;;;7.70;99.90;;;;;;4890947;29;20207;-86
2024/03/02 20:18:55;;;;;;;42.05;26.83;;;7.60;99.90;;;;;;4896051;29;20312;-86
2024/03/02 20:21:22;;;;;;;42.47;27.27;;;7.50;99.90;;;;;;4892176;29;20200;-87
2024/03/02 20:23:49;;;;;;;44.10;27.80;;;7.50;99.90;;;;;;4875149;29;20299;-87
2024/03/02 20:26:17;;;;;;;45.35;27.83;;;7.50;99.90;;;;;;4893328;29;20673;-86
2024/03/02 20:28:44;;;;;;;41.85;27.33;;;7.50;99.90;;;;;;4884070;29;20226;-87
2024/03/02 20:31:13;;;;;;;43.50;27.80;;;7.50;99.90;;;;;;4892865;29;20260;-86
2024/03/02 20:33:41;;;;;;;46.78;29.05;;;7.50;99.90;;;;;;4888525;29;20891;-88
2024/03/02 20:36:13;;;;;;;45.85;27.88;;;7.50;99.90;;;;;;4895426;29;20217;-86
2024/03/02 20:38:40;;;;;;;43.05;26.90;;;7.40;99.90;;;;;;4894142;29;20258;-87
2024/03/02 20:41:14;;;;;;;50.33;28.83;;;7.40;99.90;;;;;;4895022;29;20200;-86
2024/03/02 20:43:41;;;;;;;48.58;29.17;;;7.40;99.90;;;;;;4886087;29;20670;-86
2024/03/02 20:46:07;;;;;;;41.83;28.02;;;7.40;99.90;;;;;;4890486;29;20670;-87
2024/03/02 20:48:35;;;;;;;45.08;28.33;;;7.30;99.90;;;;;;4888870;29;20212;-87
2024/03/02 20:51:04;;;;;;;48.10;29.35;;;7.20;99.90;;;;;;4895147;29;20231;-87
2024/03/02 20:53:31;;;;;;;51.55;29.73;;;7.10;99.90;;;;;;4891618;29;20207;-86
2024/03/02 20:55:57;;;;;;;46.85;29.67;;;7.10;99.90;;;;;;4893532;29;20207;-85
2024/03/02 20:58:24;;;;;;;47.10;29.73;;;7.10;99.90;;;;;;4877091;29;20211;-88
2024/03/02 21:00:51;;;;;;;48.42;29.80;;;7.10;99.90;;;;;;4871769;29;20208;-88
2024/03/02 21:03:18;;;;;;;44.90;28.52;;;7.00;99.90;;;;;;4894129;29;20214;-86
2024/03/02 21:05:46;;;;;;;45.38;28.80;;;7.10;99.90;;;;;;4891961;29;20211;-88
2024/03/02 21:08:15;;;;;;;43.20;27.73;;;7.10;99.90;;;;;;4891449;29;20630;-86
2024/03/02 21:10:42;;;;;;;43.85;26.48;;;7.10;99.90;;;;;;4889882;29;20291;-86
2024/03/02 21:13:11;;;;;;;44.80;28.30;;;7.10;99.90;;;;;;4886053;29;20785;-85
2024/03/02 21:15:38;;;;;;;47.30;28.33;;;7.00;99.90;;;;;;4879536;29;20243;-86
2024/03/02 21:18:05;;;;;;;43.45;28.25;;;7.00;99.90;;;;;;4895897;29;20202;-86
2024/03/02 21:20:32;;;;;;;47.47;29.52;;;7.00;99.90;;;;;;4896293;29;20290;-86
2024/03/02 21:22:59;;;;;;;48.42;29.33;;;6.90;99.90;;;;;;4891236;29;20207;-85
2024/03/02 21:25:27;;;;;;;48.70;29.33;;;6.80;99.90;;;;;;4893544;29;20199;-86
2024/03/02 21:27:54;;;;;;;50.45;29.67;;;6.70;99.90;;;;;;4890500;29;20660;-86
2024/03/02 21:30:21;;;;;;;45.83;28.95;;;6.60;99.90;;;;;;4889913;29;20702;-85
2024/03/02 21:32:49;;;;;;;45.60;28.52;;;6.60;99.90;;;;;;4875849;29;20227;-85
2024/03/02 21:35:16;;;;;;;46.92;28.33;;;6.50;99.90;;;;;;4878916;29;20203;-85
2024/03/02 21:37:43;;;;;;;44.65;28.25;;;6.50;99.90;;;;;;4880200;29;20581;-85
2024/03/02 21:40:11;;;;;;;46.13;28.98;;;6.60;99.90;;;;;;4894654;29;20199;-85
2024/03/02 21:42:40;;;;;;;45.42;27.75;;;6.60;99.90;;;;;;4879989;29;20306;-85
2024/03/02 21:45:08;;;;;;;44.28;28.10;;;6.60;99.90;;;;;;4889130;29;20199;-86
2024/03/02 21:47:35;;;;;;;45.55;29.02;;;6.60;99.90;;;;;;4896424;29;20203;-87
2024/03/02 21:50:02;;;;;;;47.08;29.48;;;6.50;99.90;;;;;;4897708;29;20238;-85
2024/03/02 21:52:29;;;;;;;42.72;26.90;;;6.40;99.90;;;;;;4898089;29;20249;-86
2024/03/02 21:54:55;;;;;;;46.13;27.95;;;6.50;99.90;;;;;;4897507;29;20655;-85
2024/03/02 21:57:24;;;;;;;46.95;28.13;;;6.50;99.90;;;;;;4898021;29;20220;-86
2024/03/02 21:59:53;;;;;;;46.53;28.88;;;6.50;99.90;;;;;;4896799;29;20658;-87
2024/03/02 22:02:20;;;;;;;47.35;28.65;;;6.50;99.90;;;;;;4892996;29;20677;-85
2024/03/02 22:04:46;;;;;;;48.83;28.58;;;6.40;99.90;;;;;;4899078;29;20211;-85
2024/03/02 22:07:13;;;;;;;45.80;28.63;;;6.30;99.90;;;;;;4896690;29;20217;-86
2024/03/02 22:09:40;;;;;;;46.35;28.00;;;6.30;99.90;;;;;;4898543;29;20214;-85
2024/03/02 22:12:07;;;;;;;45.35;27.75;;;6.20;99.90;;;;;;4895529;29;20231;-85
2024/03/02 22:14:34;;;;;;;45.78;27.88;;;6.20;99.90;;;;;;4897350;29;20792;-86
2024/03/02 22:17:02;;;;;;;48.50;28.88;;;6.20;99.90;;;;;;4895909;29;20199;-86
2024/03/02 22:19:29;;;;;;;52.30;28.63;;;6.10;99.90;;;;;;4897291;29;20215;-85
2024/03/02 22:21:59;;;;;;;46.70;28.98;;;6.00;99.90;;;;;;4894779;29;20211;-85
2024/03/02 22:24:26;;;;;;;49.20;28.17;;;5.90;99.90;;;;;;4881496;29;20588;-85
2024/03/02 22:26:55;;;;;;;50.90;28.90;;;5.80;99.90;;;;;;4896419;29;20207;-85
2024/03/02 22:32:26;;;;;;;47.72;28.58;;;5.70;99.90;;;;;;4887168;29;20223;-85
2024/03/02 22:34:53;;;;;;;49.67;29.25;;;5.80;99.90;;;;;;4889632;29;20218;-88
2024/03/02 22:37:20;;;;;;;47.55;28.35;;;5.70;99.90;;;;;;4889303;29;20210;-86
2024/03/02 22:39:47;;;;;;;48.95;29.85;;;5.60;99.90;;;;;;4878329;29;20204;-86
2024/03/02 22:42:14;;;;;;;46.97;29.48;;;5.50;99.90;;;;;;4897364;29;20214;-86
2024/03/02 22:44:40;;;;;;;52.03;28.33;;;5.40;99.90;;;;;;4897543;29;20290;-86
2024/03/02 22:47:07;;;;;;;48.15;29.08;;;5.40;99.90;;;;;;4894434;29;20212;-85
2024/03/02 22:49:36;;;;;;;43.78;27.23;;;5.50;99.90;;;;;;4876310;29;20203;-85
2024/03/02 22:52:02;;;;;;;44.97;27.23;;;5.60;99.90;;;;;;4896907;29;20227;-85
2024/03/02 22:54:29;;;;;;;50.70;28.13;;;5.50;99.90;;;;;;4897831;29;20771;-85
2024/03/02 22:56:57;;;;;;;48.65;26.67;;;5.40;99.90;;;;;;4896796;29;20227;-86
2024/03/02 22:59:23;;;;;;;49.35;28.00;;;5.30;99.90;;;;;;4896350;29;20213;-87
2024/03/02 23:01:50;;;;;;;53.83;28.13;;;5.30;99.90;;;;;;4896475;29;20215;-87
2024/03/02 23:04:17;;;;;;;49.90;27.75;;;5.30;99.90;;;;;;4897728;29;20207;-85
2024/03/02 23:06:45;;;;;;;51.50;27.52;;;5.30;99.90;;;;;;4899178;29;20233;-86
2024/03/02 23:09:13;;;;;;;48.72;28.77;;;5.40;99.90;;;;;;4894676;29;20218;-85
2024/03/02 23:11:40;;;;;;;50.55;28.27;;;5.40;99.90;;;;;;4894573;29;20236;-85
2024/03/02 23:14:07;;;;;;;49.33;27.40;;;5.40;99.90;;;;;;4895714;29;20217;-86
2024/03/02 23:16:37;;;;;;;49.53;27.85;;;5.40;99.90;;;;;;4893180;29;20212;-86
2024/03/02 23:19:03;;;;;;;48.00;27.98;;;5.50;99.90;;;;;;4893919;29;20219;-86
2024/03/02 23:21:30;;;;;;;45.95;26.88;;;5.50;99.90;;;;;;4880175;29;20697;-85
2024/03/02 23:23:59;;;;;;;45.90;27.02;;;5.40;99.90;;;;;;4896508;29;20576;-87
2024/03/02 23:26:25;;;;;;;47.22;27.27;;;5.40;99.90;;;;;;4896069;29;20273;-86
2024/03/02 23:28:52;;;;;;;48.38;28.08;;;5.40;99.90;;;;;;4890137;29;20218;-85
2024/03/02 23:31:19;;;;;;;50.38;28.67;;;5.40;99.90;;;;;;4893951;29;20294;-85
2024/03/02 23:33:48;;;;;;;46.83;26.67;;;5.50;99.90;;;;;;4895821;29;20685;-86
2024/03/02 23:36:15;;;;;;;43.15;26.08;;;5.60;99.90;;;;;;4888755;29;20238;-85
2024/03/02 23:38:41;;;;;;;51.88;27.67;;;5.60;99.90;;;;;;4895784;29;20210;-87
2024/03/02 23:41:10;;;;;;;46.58;26.52;;;5.60;99.90;;;;;;4894044;29;20210;-88
2024/03/02 23:43:37;;;;;;;41.92;24.70;;;5.50;99.90;;;;;;4894458;29;20211;-86
2024/03/02 23:46:06;;;;;;;44.37;26.23;;;5.50;99.90;;;;;;4891182;29;20211;-85
2024/03/02 23:48:33;;;;;;;46.08;26.25;;;5.30;99.90;;;;;;4891360;29;20200;-86
2024/03/02 23:51:00;;;;;;;44.97;27.38;;;5.30;99.90;;;;;;4890548;29;20581;-86
2024/03/02 23:53:26;;;;;;;43.83;25.95;;;5.20;99.90;;;;;;4880290;29;20227;-87
2024/03/02 23:55:53;;;;;;;46.57;27.23;;;5.20;99.90;;;;;;4892685;29;20214;-86
2024/03/02 23:58:22;;;;;;;46.83;26.63;;;5.20;99.90;;;;;;4896973;29;20203;-87
